West Palm Beach, FL

12:57 PM EST on January 30, 2015 (GMT -0500)
Palm Beach, FL | Change Station
CLOSE
Current Station
Personal Weather Station
Location: Palm Beach, FL
Elevation: 8 ft
Nearby Weather Stations

Elev 8 ft 26.71 °N, 80.04 °W | Updated 6 seconds ago

Partly Cloudy
Partly Cloudy
74.8 °F
Feels Like 78 °F
N
2.9
Wind Variable Wind from NW
Gusts 6.0 mph

Today
High -- | Low -- °F
--% Chance of Precip.
Yesterday
High -- | Low -- °F
Precip. -- in
7:06 AM 6:00 PM
Waxing Gibbous, 84% visible
Pressure 30.15 in
Visibility 10.0 miles
Clouds Few 5000 ft
Few 25000 ft
Heat Index 78 °F
Dew Point 53 °F
Humidity 46%
Rainfall 0.00 in
Snow Depth Not available.
UV 7 out of 12
Pollen 8.30 out of 12
Air Quality Not available.
Flu Activity Not available.
METAR KPBI 301753Z 28010G15KT 10SM FEW050 FEW250 23/11 A3015 RMK AO2 SLP208 T02330106 10233 20122 58026

More Conditions Fewer Conditions

Pressure 30.15 in
Visibility 10.0 miles
Clouds Few 5000 ft
Few 25000 ft
Heat Index 78 °F
Dew Point 53 °F
Humidity 46%
Rainfall 0.00 in
Snow Depth Not available.
UV 7 out of 12
Pollen 8.30 out of 12
Air Quality Not available.
Flu Activity Not available.
METAR KPBI 301753Z 28010G15KT 10SM FEW050 FEW250 23/11 A3015 RMK AO2 SLP208 T02330106 10233 20122 58026

More Conditions Fewer Conditions

10-Day Weather Forecast

Almanac

Astronomy

Jan. 30, 2015 Rise Set
Actual Time
Civil Twilight
Nautical Twilight
Astronomical Twilight
Moon
Length of Visible Light
Length of Day
Tomorrow will be .
, % of the Moon is Illuminated

Today's Extremes

State Highs State Lows

Community

WunderPhotos

Upload Photos

1,791,835 photos uploaded!

WunderBlogs® & News

Nearby

Air Quality

  Air Quality AQ Index Pollutant
Not available.

Snow Depth

Station Depth Elevation

Earthquake Activity

City Distance Mag. Time & Date
Minimum magnitude displayed is 2.5.

Coastal Water Temperatures

Place Temperature

Nearby Weather Stations